Time;durP1;ratioP1;P1;durP2;ratioP2;P2;SDS_P1;SDS_P2;PMS_P1;PMS_P2;Temp;Humidity;BMP_temperature;BMP_pressure;BME280_temperature;BME280_humidity;BME280_pressure;Samples;Min_cycle;Max_cycle;Signal;HPM_P1;HPM_P2
2021/11/07 00:00:28;;;;;;;17.58;11.57;;;;;;;9.02;96.94;101124.25;10245996;28;20072;-69
2021/11/07 00:05:34;;;;;;;15.48;10.05;;;;;;;8.95;97.65;101118.38;10240618;28;20052;-69
2021/11/07 00:10:50;;;;;;;14.30;11.45;;;;;;;8.91;99.88;101117.38;10238249;28;20049;-70
2021/11/07 00:15:47;;;;;;;16.58;11.85;;;;;;;8.92;100.00;101107.25;10232211;28;20045;-68
2021/11/07 00:20:52;;;;;;;13.77;10.38;;;;;;;8.86;100.00;101092.88;10251379;28;20079;-69
2021/11/07 00:25:57;;;;;;;14.35;12.07;;;;;;;8.83;100.00;101077.13;10240166;28;20041;-69
2021/11/07 00:31:16;;;;;;;16.30;12.40;;;;;;;8.84;100.00;101073.28;10251025;28;20072;-69
2021/11/07 00:36:17;;;;;;;15.45;12.23;;;;;;;8.86;100.00;101060.16;10246399;28;20103;-69
2021/11/07 00:41:27;;;;;;;17.42;12.13;;;;;;;8.81;100.00;101041.16;10243884;28;20136;-69
2021/11/07 00:46:33;;;;;;;16.60;11.60;;;;;;;8.81;100.00;101028.31;10234497;28;20499;-69
2021/11/07 00:56:37;;;;;;;13.48;11.32;;;;;;;8.76;100.00;100994.91;10222671;28;21249;-69
2021/11/07 01:01:39;;;;;;;14.27;11.07;;;;;;;8.78;100.00;100973.59;10236012;28;20482;-68
2021/11/07 01:06:35;;;;;;;17.05;11.68;;;;;;;8.70;100.00;100980.53;10232846;28;20045;-70
2021/11/07 01:11:32;;;;;;;15.13;11.82;;;;;;;8.68;100.00;100976.47;10254612;28;20045;-70
2021/11/07 01:16:28;;;;;;;13.70;11.48;;;;;;;8.71;100.00;100954.91;10236893;28;20056;-69
2021/11/07 01:21:28;;;;;;;19.17;12.40;;;;;;;8.74;100.00;100959.75;10225737;28;20119;-70
2021/11/07 01:27:07;;;;;;;14.07;10.45;;;;;;;8.76;100.00;100970.38;10229166;28;20129;-70
2021/11/07 01:31:51;;;;;;;15.65;9.48;;;;;;;8.72;100.00;100944.81;10240868;28;20164;-70
2021/11/07 01:37:01;;;;;;;16.02;10.60;;;;;;;8.77;100.00;100925.63;10226693;28;20092;-70
2021/11/07 01:42:05;;;;;;;12.18;8.90;;;;;;;8.78;100.00;100938.16;10233812;28;20045;-70
2021/11/07 01:47:02;;;;;;;14.57;8.52;;;;;;;8.81;100.00;100935.63;10228089;28;20075;-70
2021/11/07 01:52:03;;;;;;;15.35;8.63;;;;;;;8.85;100.00;100903.13;10237632;28;20080;-69
2021/11/07 01:56:59;;;;;;;10.15;8.05;;;;;;;8.88;100.00;100897.06;10237834;28;20057;-69
2021/11/07 02:01:59;;;;;;;8.75;7.45;;;;;;;8.86;100.00;100899.28;10235946;28;20077;-69
2021/11/07 02:06:56;;;;;;;14.30;8.50;;;;;;;8.89;100.00;100895.13;10232437;28;20049;-71
2021/11/07 02:11:52;;;;;;;10.30;8.00;;;;;;;8.89;100.00;100860.53;10238990;28;20065;-71
2021/11/07 02:16:48;;;;;;;9.43;7.60;;;;;;;8.87;100.00;100860.00;10239875;28;20140;-71
2021/11/07 02:21:47;;;;;;;10.20;8.25;;;;;;;8.92;100.00;100846.28;10235661;28;20111;-70
2021/11/07 02:26:51;;;;;;;10.23;7.93;;;;;;;8.94;100.00;100849.50;10234841;28;20538;-69
2021/11/07 02:31:49;;;;;;;14.13;8.77;;;;;;;8.94;100.00;100829.63;10233501;28;20061;-70
2021/11/07 02:36:46;;;;;;;11.13;8.18;;;;;;;8.96;100.00;100824.66;10235213;28;20455;-70
2021/11/07 02:41:43;;;;;;;10.27;7.88;;;;;;;9.01;100.00;100814.44;10233447;28;20073;-69
2021/11/07 02:46:39;;;;;;;11.45;8.57;;;;;;;9.04;100.00;100800.19;10242429;28;20045;-70
2021/11/07 02:51:36;;;;;;;10.73;8.27;;;;;;;9.04;100.00;100800.19;10244138;28;20052;-69
2021/11/07 02:56:33;;;;;;;10.68;6.75;;;;;;;9.08;100.00;100794.94;10216281;28;20124;-69
2021/11/07 03:01:31;;;;;;;9.23;7.40;;;;;;;9.09;100.00;100795.75;10231631;28;20045;-68
2021/11/07 03:06:35;;;;;;;9.98;7.28;;;;;;;9.02;100.00;100788.78;10235837;28;20519;-70
2021/11/07 03:11:40;;;;;;;10.50;8.55;;;;;;;8.98;100.00;100785.06;10238303;28;20076;-70
2021/11/07 03:16:36;;;;;;;10.45;8.48;;;;;;;8.97;100.00;100761.63;10237114;28;20049;-70
2021/11/07 03:21:33;;;;;;;16.00;7.65;;;;;;;8.93;100.00;100770.72;10238148;28;20204;-70
2021/11/07 03:26:31;;;;;;;10.70;8.73;;;;;;;8.89;100.00;100765.09;10241341;28;20041;-70
2021/11/07 03:31:39;;;;;;;10.57;9.48;;;;;;;8.85;100.00;100780.44;10246128;28;20403;-70
2021/11/07 03:36:50;;;;;;;14.27;10.32;;;;;;;8.81;100.00;100773.97;10219293;28;20045;-70
2021/11/07 03:41:48;;;;;;;10.07;7.78;;;;;;;8.75;100.00;100786.06;10250517;28;20136;-70
2021/11/07 03:46:49;;;;;;;10.73;8.05;;;;;;;8.76;100.00;100774.06;10239530;28;20041;-70
2021/11/07 03:51:46;;;;;;;9.00;7.10;;;;;;;8.76;100.00;100771.34;10253680;28;20037;-68
2021/11/07 03:56:44;;;;;;;7.75;6.45;;;;;;;8.75;100.00;100765.09;10251916;28;20049;-69
2021/11/07 04:01:41;;;;;;;8.00;6.05;;;;;;;8.75;100.00;100748.75;10244068;28;20838;-70
2021/11/07 04:06:38;;;;;;;11.55;5.75;;;;;;;8.76;100.00;100750.34;10237166;28;20045;-70
2021/11/07 04:11:36;;;;;;;6.47;4.38;;;;;;;8.79;100.00;100759.81;10235898;28;20049;-67
2021/11/07 04:16:34;;;;;;;7.32;4.93;;;;;;;8.77;100.00;100746.53;10235835;28;20088;-70
2021/11/07 04:21:30;;;;;;;7.95;4.80;;;;;;;8.77;100.00;100730.16;10246852;28;20080;-70
2021/11/07 04:26:27;;;;;;;8.23;3.30;;;;;;;8.78;100.00;100741.88;10241320;28;20052;-70
2021/11/07 04:31:24;;;;;;;8.45;4.60;;;;;;;8.79;100.00;100732.56;10236422;28;20393;-71
2021/11/07 04:36:20;;;;;;;6.97;3.15;;;;;;;8.77;100.00;100718.44;10246555;28;20049;-69
2021/11/07 04:41:17;;;;;;;8.55;3.00;;;;;;;8.78;100.00;100714.59;10231735;28;20064;-70
2021/11/07 04:46:17;;;;;;;5.95;2.10;;;;;;;8.81;100.00;100716.72;10245124;28;20087;-70
2021/11/07 04:51:15;;;;;;;11.68;2.13;;;;;;;8.79;100.00;100708.03;10246820;28;20072;-70
2021/11/07 04:56:11;;;;;;;10.38;2.10;;;;;;;8.82;100.00;100704.72;10245304;28;20068;-71
2021/11/07 05:01:09;;;;;;;5.97;1.50;;;;;;;8.85;100.00;100701.34;10248186;28;20048;-68
2021/11/07 05:06:06;;;;;;;8.07;1.50;;;;;;;8.87;100.00;100690.16;10246620;28;20077;-70
2021/11/07 05:11:03;;;;;;;10.80;1.45;;;;;;;8.83;100.00;100695.41;10241192;28;20130;-67
2021/11/07 05:15:59;;;;;;;11.35;2.33;;;;;;;8.82;100.00;100697.34;10231702;28;20518;-70
2021/11/07 05:20:55;;;;;;;12.45;1.55;;;;;;;8.83;100.00;100690.75;10246648;28;20073;-70
2021/11/07 05:25:54;;;;;;;10.32;2.03;;;;;;;8.77;100.00;100670.19;10241938;28;20096;-70
2021/11/07 05:30:50;;;;;;;13.32;1.85;;;;;;;8.73;100.00;100684.72;10238804;28;20046;-70
2021/11/07 05:35:47;;;;;;;11.93;1.80;;;;;;;8.71;100.00;100698.66;10245384;28;20125;-70
2021/11/07 05:40:44;;;;;;;11.80;1.95;;;;;;;8.78;100.00;100703.69;10248010;28;20119;-69
2021/11/07 05:45:40;;;;;;;12.65;2.58;;;;;;;8.75;100.00;100702.41;10246807;28;20045;-70
2021/11/07 05:50:36;;;;;;;13.32;1.92;;;;;;;8.75;100.00;100698.84;10253883;28;20068;-69
2021/11/07 05:55:33;;;;;;;13.23;1.80;;;;;;;8.70;100.00;100702.47;10255798;28;20111;-70
2021/11/07 06:00:30;;;;;;;12.75;2.10;;;;;;;8.71;100.00;100719.66;10251219;28;20448;-70
2021/11/07 06:05:27;;;;;;;11.13;2.72;;;;;;;8.70;100.00;100710.66;10240430;28;20046;-69
2021/11/07 06:10:24;;;;;;;10.43;2.30;;;;;;;8.66;100.00;100706.13;10247588;28;20072;-69
2021/11/07 06:15:21;;;;;;;14.15;2.67;;;;;;;8.66;100.00;100695.22;10237984;28;20041;-69
2021/11/07 06:20:17;;;;;;;12.52;2.53;;;;;;;8.66;100.00;100689.78;10255694;28;20037;-70
2021/11/07 06:25:14;;;;;;;14.00;2.60;;;;;;;8.62;100.00;100706.75;10238387;28;20053;-70
2021/11/07 06:30:11;;;;;;;21.75;3.13;;;;;;;8.68;100.00;100721.09;10248456;28;20075;-70
2021/11/07 06:35:11;;;;;;;18.63;2.92;;;;;;;8.68;100.00;100714.81;10247978;28;20045;-68
2021/11/07 06:40:09;;;;;;;18.15;3.20;;;;;;;8.69;100.00;100711.78;10236289;28;20091;-69
2021/11/07 06:45:06;;;;;;;17.52;3.15;;;;;;;8.67;100.00;100703.09;10251177;28;21395;-71
2021/11/07 06:50:04;;;;;;;21.77;2.70;;;;;;;8.68;100.00;100715.63;10244204;28;20328;-69
2021/11/07 06:55:01;;;;;;;17.27;3.28;;;;;;;8.70;99.10;100718.03;10235814;28;20100;-69
2021/11/07 06:59:58;;;;;;;15.95;2.30;;;;;;;8.69;96.78;100716.44;10234289;28;20049;-71
2021/11/07 07:04:55;;;;;;;20.15;2.75;;;;;;;8.76;95.94;100738.63;10243144;28;20053;-70
2021/11/07 07:09:55;;;;;;;15.25;2.60;;;;;;;8.80;95.43;100728.75;10235579;28;20129;-70
2021/11/07 07:15:05;;;;;;;18.23;2.22;;;;;;;8.80;95.54;100724.09;10240452;28;20160;-70
2021/11/07 07:25:25;;;;;;;23.17;2.85;;;;;;;8.80;96.58;100729.53;10247443;28;20497;-68
2021/11/07 07:30:31;;;;;;;19.60;2.40;;;;;;;8.77;96.53;100723.88;10246581;28;20075;-70
2021/11/07 07:35:29;;;;;;;19.45;2.70;;;;;;;8.72;95.46;100721.25;10239639;28;20463;-69
2021/11/07 07:40:25;;;;;;;20.63;3.20;;;;;;;8.82;96.23;100737.44;10250115;28;20464;-70
2021/11/07 07:45:22;;;;;;;18.88;3.00;;;;;;;8.83;95.02;100749.94;10236449;28;20122;-71
2021/11/07 07:50:21;;;;;;;22.40;3.55;;;;;;;8.81;95.65;100746.69;10219005;28;20037;-71
2021/11/07 07:55:18;;;;;;;14.98;3.85;;;;;;;8.77;96.47;100745.69;10216545;28;20115;-71
2021/11/07 08:00:16;;;;;;;16.52;2.42;;;;;;;8.75;92.37;100737.00;10215228;28;20451;-72
2021/11/07 08:05:14;;;;;;;19.90;3.65;;;;;;;8.63;92.04;100730.19;10216228;28;20083;-71
2021/11/07 08:10:12;;;;;;;16.48;2.50;;;;;;;8.61;92.23;100737.84;10233238;28;20041;-70
2021/11/07 08:15:12;;;;;;;20.10;3.13;;;;;;;8.62;91.72;100739.44;10212919;28;20052;-70
2021/11/07 08:20:11;;;;;;;16.30;2.60;;;;;;;8.69;91.29;100732.78;10208223;28;20653;-69
2021/11/07 08:25:12;;;;;;;13.25;2.47;;;;;;;8.71;90.04;100741.47;10202868;28;20096;-71
2021/11/07 08:30:11;;;;;;;12.55;2.85;;;;;;;8.63;89.40;100746.53;10203499;28;20093;-70
2021/11/07 08:35:08;;;;;;;11.70;2.20;;;;;;;8.52;88.85;100758.75;10213896;28;20419;-71
2021/11/07 08:40:08;;;;;;;11.73;2.30;;;;;;;8.64;88.61;100761.75;10230032;28;20140;-71
2021/11/07 09:00:59;;;;;;;18.95;2.70;;;;;;;8.82;91.09;100781.06;10233898;28;20049;-71
2021/11/07 09:06:22;;;;;;;22.47;3.30;;;;;;;8.73;94.83;100777.41;10248647;28;20071;-71
2021/11/07 09:11:17;;;;;;;17.88;3.28;;;;;;;8.67;97.69;100778.63;10233305;28;20079;-71
2021/11/07 09:16:14;;;;;;;25.98;4.45;;;;;;;8.74;98.62;100776.28;10246410;28;20418;-73
2021/11/07 09:21:24;;;;;;;23.88;3.60;;;;;;;8.82;98.56;100770.13;10228935;28;20084;-72
2021/11/07 09:26:27;;;;;;;20.27;3.75;;;;;;;8.78;95.90;100774.59;10226320;28;20049;-72
2021/11/07 09:36:34;;;;;;;19.83;2.53;;;;;;;8.67;92.92;100778.63;10217751;28;20411;-72
2021/11/07 09:46:54;;;;;;;22.38;3.42;;;;;;;9.02;94.17;100774.34;10178532;28;20586;-72
2021/11/07 09:51:58;;;;;;;21.55;4.47;;;;;;;9.03;92.60;100771.31;10214561;28;20131;-72
2021/11/07 09:56:56;;;;;;;20.75;2.78;;;;;;;9.18;89.78;100763.91;10202261;28;20499;-72
2021/11/07 10:01:57;;;;;;;21.63;3.97;;;;;;;9.21;87.22;100766.00;10245124;28;20762;-71
2021/11/07 10:07:11;;;;;;;19.80;4.28;;;;;;;9.24;85.96;100765.41;10227812;28;20076;-73
2021/11/07 10:12:21;;;;;;;17.20;2.73;;;;;;;9.27;83.76;100764.78;10212187;28;20137;-66
2021/11/07 10:17:40;;;;;;;13.40;2.28;;;;;;;9.37;80.89;100780.91;10211828;28;20077;-74
2021/11/07 10:22:38;;;;;;;16.63;1.75;;;;;;;9.45;80.95;100769.28;10206156;28;20538;-73
2021/11/07 10:27:40;;;;;;;22.13;3.35;;;;;;;9.34;80.93;100772.56;10213436;28;20038;-73
2021/11/07 10:32:47;;;;;;;18.17;2.60;;;;;;;9.20;81.88;100786.22;10214492;28;20099;-73
2021/11/07 10:38:01;;;;;;;18.23;2.50;;;;;;;8.96;85.23;100789.22;10203323;28;20455;-73
2021/11/07 10:53:31;;;;;;;20.42;3.35;;;;;;;9.68;87.02;100772.03;10206300;28;20076;-73
2021/11/07 10:58:30;;;;;;;23.27;4.05;;;;;;;9.56;86.18;100771.75;10234625;28;20132;-73
2021/11/07 11:03:27;;;;;;;21.83;3.60;;;;;;;9.41;88.66;100753.81;10237561;28;20591;-73
2021/11/07 11:08:33;;;;;;;29.08;3.95;;;;;;;9.21;91.37;100782.38;10239567;28;20076;-71
2021/11/07 11:34:12;;;;;;;15.40;2.85;;;;;;;9.63;84.99;100774.84;10224119;28;20080;-68
2021/11/07 11:39:13;;;;;;;18.30;3.72;;;;;;;9.41;84.47;100781.91;10228852;28;20071;-69
2021/11/07 11:44:13;;;;;;;14.88;2.30;;;;;;;9.24;85.43;100781.78;10230182;28;20041;-70
2021/11/07 11:59:59;;;;;;;16.90;2.15;;;;;;;8.53;90.29;100782.16;10240570;28;20037;-70
2021/11/07 12:05:30;;;;;;;16.63;2.13;;;;;;;8.84;90.78;100767.88;10221083;28;20107;-69
2021/11/07 12:10:31;;;;;;;11.57;2.13;;;;;;;8.80;89.81;100764.19;10215652;28;20124;-70
2021/11/07 12:15:50;;;;;;;21.75;2.45;;;;;;;8.68;90.03;100761.13;10212926;28;20393;-70
2021/11/07 12:20:56;;;;;;;16.92;2.38;;;;;;;9.14;90.50;100749.25;10224855;28;20076;-70
2021/11/07 12:25:55;;;;;;;18.23;3.38;;;;;;;9.47;88.33;100753.41;10233293;28;20450;-71
2021/11/07 12:31:04;;;;;;;15.32;2.85;;;;;;;10.07;84.74;100732.25;10209806;28;20081;-69
2021/11/07 12:41:11;;;;;;;12.40;2.70;;;;;;;10.07;80.33;100733.06;10205575;28;20041;-70
2021/11/07 12:46:19;;;;;;;20.02;2.60;;;;;;;9.80;82.67;100738.69;10217186;28;20168;-71
2021/11/07 12:51:20;;;;;;;22.30;4.22;;;;;;;9.62;84.24;100737.75;10220375;28;21842;-71
2021/11/07 12:56:30;;;;;;;18.67;3.03;;;;;;;9.38;87.35;100744.34;10220525;28;20057;-70
2021/11/07 13:01:27;;;;;;;18.92;2.92;;;;;;;9.05;89.77;100763.63;10235430;28;20045;-70
2021/11/07 13:06:24;;;;;;;26.40;4.38;;;;;;;8.80;93.91;100783.25;10210251;28;20077;-70
2021/11/07 13:11:35;;;;;;;24.80;4.15;;;;;;;8.82;95.22;100765.50;10209154;28;20411;-73
2021/11/07 13:22:36;;;;;;;20.75;3.72;;;;;;;9.73;92.01;100755.50;10072112;28;20067;-70
2021/11/07 13:27:40;;;;;;;21.48;2.90;;;;;;;9.63;91.14;100767.50;10195907;28;20111;-71
2021/11/07 13:32:38;;;;;;;20.83;2.90;;;;;;;9.29;90.47;100767.22;10218097;28;20136;-71
2021/11/07 13:37:41;;;;;;;15.98;4.03;;;;;;;9.04;93.84;100781.09;10233800;28;20131;-69
2021/11/07 13:42:41;;;;;;;20.48;3.25;;;;;;;8.77;95.56;100800.22;10218228;28;20504;-71
2021/11/07 13:47:44;;;;;;;16.02;2.83;;;;;;;8.64;97.12;100794.47;10209586;28;20053;-71
2021/11/07 13:52:43;;;;;;;17.02;3.00;;;;;;;8.42;94.62;100808.81;10214695;28;20463;-71
2021/11/07 13:57:43;;;;;;;11.35;1.73;;;;;;;8.22;96.09;100801.75;10201744;28;20057;-70
2021/11/07 14:02:46;;;;;;;14.15;1.80;;;;;;;8.02;97.33;100802.91;10207090;28;20461;-71
2021/11/07 14:07:59;;;;;;;12.70;2.00;;;;;;;8.05;100.00;100803.44;10211939;28;20053;-68
2021/11/07 14:12:57;;;;;;;11.80;1.53;;;;;;;7.94;99.84;100800.09;10213244;28;20069;-71
2021/11/07 14:18:08;;;;;;;14.18;1.40;;;;;;;8.03;100.00;100784.69;10221682;28;20046;-70
2021/11/07 14:23:37;;;;;;;18.77;3.08;;;;;;;8.11;98.45;100792.16;10248914;28;20074;-70
2021/11/07 14:29:10;;;;;;;11.15;1.77;;;;;;;8.15;98.87;100795.91;10220958;28;20533;-70
2021/11/07 14:34:15;;;;;;;12.02;1.95;;;;;;;8.21;99.56;100797.44;10219969;28;20049;-71
2021/11/07 14:39:32;;;;;;;16.05;2.15;;;;;;;8.10;100.00;100809.63;10218838;28;20111;-73
2021/11/07 14:44:43;;;;;;;14.80;2.30;;;;;;;8.15;100.00;100803.28;10218186;28;20057;-70
2021/11/07 14:50:07;;;;;;;15.18;2.33;;;;;;;8.21;100.00;100805.59;10216360;28;20041;-69
2021/11/07 14:55:11;;;;;;;14.05;2.42;;;;;;;8.24;100.00;100798.75;10219571;28;20069;-71
2021/11/07 15:00:17;;;;;;;18.40;2.80;;;;;;;8.16;100.00;100808.41;10207128;28;20096;-73
2021/11/07 15:05:21;;;;;;;19.90;3.60;;;;;;;8.21;100.00;100794.72;10211230;28;20050;-70
2021/11/07 15:10:40;;;;;;;17.75;3.75;;;;;;;8.22;100.00;100815.38;10215370;28;20058;-71
2021/11/07 15:21:13;;;;;;;15.70;3.03;;;;;;;8.18;100.00;100806.19;10219976;28;20473;-70
2021/11/07 15:26:25;;;;;;;20.57;3.10;;;;;;;8.13;100.00;100814.44;10216595;28;20037;-70
2021/11/07 15:31:22;;;;;;;14.10;2.90;;;;;;;8.17;100.00;100807.31;10209330;28;20464;-71
2021/11/07 15:36:29;;;;;;;17.85;3.30;;;;;;;8.09;100.00;100816.16;10209733;28;20095;-71
2021/11/07 15:41:25;;;;;;;21.15;3.85;;;;;;;8.00;100.00;100820.66;10214140;28;20058;-70
2021/11/07 15:46:27;;;;;;;18.08;2.80;;;;;;;7.96;100.00;100812.28;10223926;28;20111;-70
2021/11/07 15:51:31;;;;;;;15.68;2.15;;;;;;;7.93;100.00;100822.97;10221389;28;20470;-70
2021/11/07 15:56:50;;;;;;;14.40;2.33;;;;;;;7.92;100.00;100824.06;10221585;28;20076;-70
2021/11/07 16:02:02;;;;;;;10.48;2.00;;;;;;;7.88;100.00;100825.78;10232538;28;20126;-71
2021/11/07 16:07:09;;;;;;;9.73;1.85;;;;;;;7.82;99.15;100818.78;10213513;28;20073;-71
2021/11/07 16:12:24;;;;;;;16.67;2.40;;;;;;;7.84;100.00;100813.84;10217576;28;20091;-69
2021/11/07 16:17:30;;;;;;;18.40;3.05;;;;;;;7.87;100.00;100827.69;10202644;28;20073;-71
2021/11/07 16:22:27;;;;;;;15.02;2.85;;;;;;;7.84;100.00;100819.28;10215943;28;20042;-70
2021/11/07 16:27:24;;;;;;;19.55;3.53;;;;;;;7.91;100.00;100830.63;10204155;28;20112;-71
2021/11/07 16:32:24;;;;;;;16.38;3.13;;;;;;;7.88;100.00;100850.28;10217478;28;20034;-71
2021/11/07 16:37:26;;;;;;;73.80;8.23;;;;;;;7.77;100.00;100845.00;10206226;28;20491;-71
2021/11/07 16:42:23;;;;;;;20.58;2.60;;;;;;;7.76;100.00;100859.69;10229453;28;20079;-70
2021/11/07 16:47:25;;;;;;;16.02;2.90;;;;;;;7.71;100.00;100856.25;10225754;28;20107;-72
2021/11/07 16:52:24;;;;;;;17.27;3.17;;;;;;;7.64;100.00;100850.38;10222131;28;20037;-71
2021/11/07 16:57:23;;;;;;;11.52;1.73;;;;;;;7.61;100.00;100861.81;10214758;28;20388;-70
2021/11/07 17:02:31;;;;;;;13.75;2.22;;;;;;;7.58;100.00;100857.78;10206333;28;20132;-70
2021/11/07 17:07:46;;;;;;;19.90;2.90;;;;;;;7.65;100.00;100836.44;10196330;28;20558;-70
2021/11/07 17:12:54;;;;;;;18.77;3.05;;;;;;;7.62;100.00;100842.50;10215835;28;20049;-69
2021/11/07 17:18:16;;;;;;;18.98;2.67;;;;;;;7.58;100.00;100852.34;10213855;28;20044;-71
2021/11/07 17:28:30;;;;;;;16.43;3.30;;;;;;;7.68;100.00;100852.22;10227022;28;20041;-71
2021/11/07 17:33:51;;;;;;;17.42;3.15;;;;;;;7.72;100.00;100872.25;10225258;28;20041;-71
2021/11/07 17:49:46;;;;;;;16.33;2.08;;;;;;;7.64;100.00;100894.72;10202158;28;20519;-71
2021/11/07 17:54:44;;;;;;;10.82;1.63;;;;;;;7.57;100.00;100894.28;10213629;28;20491;-67
2021/11/07 17:59:42;;;;;;;20.30;2.50;;;;;;;7.58;100.00;100895.88;10219017;28;20092;-70
2021/11/07 18:04:40;;;;;;;24.88;3.17;;;;;;;7.59;100.00;100897.50;10201853;28;20069;-69
2021/11/07 18:09:53;;;;;;;17.90;2.45;;;;;;;7.58;100.00;100895.88;10211405;28;20075;-69
2021/11/07 18:14:51;;;;;;;12.95;2.30;;;;;;;7.57;100.00;100888.84;10213633;28;20049;-70
2021/11/07 18:19:48;;;;;;;16.30;2.30;;;;;;;7.53;100.00;100893.22;10213109;28;20050;-71
2021/11/07 18:24:47;;;;;;;11.30;2.60;;;;;;;7.54;100.00;100913.88;10216500;28;20088;-70
2021/11/07 18:29:56;;;;;;;19.48;2.42;;;;;;;7.50;100.00;100904.72;10218357;28;20092;-70
2021/11/07 18:34:54;;;;;;;15.45;2.28;;;;;;;7.49;100.00;100900.34;10222686;28;20069;-68
2021/11/07 18:39:51;;;;;;;22.52;2.70;;;;;;;7.47;100.00;100902.56;10217541;28;20157;-69
2021/11/07 18:44:48;;;;;;;19.77;2.75;;;;;;;7.46;100.00;100899.03;10210306;28;20080;-73
2021/11/07 18:49:44;;;;;;;18.95;2.20;;;;;;;7.46;100.00;100898.22;10201736;28;20081;-68
2021/11/07 18:54:44;;;;;;;15.73;3.55;;;;;;;7.46;100.00;100898.22;10207623;28;20049;-71
2021/11/07 18:59:41;;;;;;;25.00;2.15;;;;;;;7.40;100.00;100894.75;10200594;28;20050;-74
2021/11/07 19:04:38;;;;;;;18.90;3.20;;;;;;;7.40;100.00;100904.81;10212621;28;20068;-74
2021/11/07 19:09:36;;;;;;;12.35;2.50;;;;;;;7.46;100.00;100904.47;10198705;28;20077;-68
2021/11/07 19:14:35;;;;;;;19.20;2.80;;;;;;;7.43;100.00;100917.88;10210190;28;20045;-74
2021/11/07 19:19:32;;;;;;;15.98;3.47;;;;;;;7.43;100.00;100920.59;10239946;28;20094;-70
2021/11/07 19:24:31;;;;;;;10.88;1.73;;;;;;;7.44;100.00;100916.75;10239808;28;20122;-70
2021/11/07 19:29:28;;;;;;;16.15;2.78;;;;;;;7.41;100.00;100917.34;10237187;28;20617;-72
2021/11/07 19:34:27;;;;;;;19.73;2.88;;;;;;;7.51;100.00;100933.53;10239691;28;20067;-74
2021/11/07 19:39:26;;;;;;;16.95;3.03;;;;;;;7.47;100.00;100932.47;10234637;28;20053;-71
2021/11/07 19:44:23;;;;;;;16.88;2.53;;;;;;;7.52;100.00;100929.69;10225521;28;20045;-72
2021/11/07 19:49:27;;;;;;;18.75;2.78;;;;;;;7.49;100.00;100935.72;10228466;28;20044;-70
2021/11/07 19:54:26;;;;;;;25.90;3.05;;;;;;;7.49;100.00;100946.59;10224329;28;20444;-72
2021/11/07 19:59:25;;;;;;;20.02;3.22;;;;;;;7.49;100.00;100946.59;10227720;28;20085;-73
2021/11/07 20:09:31;;;;;;;17.23;2.80;;;;;;;7.54;100.00;100965.59;10223432;28;20077;-72
2021/11/07 20:14:33;;;;;;;24.65;3.45;;;;;;;7.51;100.00;100956.09;10220147;28;20123;-70
2021/11/07 20:19:31;;;;;;;20.02;3.50;;;;;;;7.46;100.00;100966.25;10210943;28;20037;-69
2021/11/07 20:24:29;;;;;;;25.65;3.85;;;;;;;7.45;100.00;100975.50;10213021;28;20498;-69
2021/11/07 20:29:29;;;;;;;18.63;3.65;;;;;;;7.41;100.00;100988.88;10219795;28;20103;-71
2021/11/07 20:34:31;;;;;;;14.32;2.60;;;;;;;7.46;100.00;100980.66;10218734;28;20042;-75
2021/11/07 20:39:30;;;;;;;18.73;2.72;;;;;;;7.42;100.00;100989.69;10201364;28;20080;-69
2021/11/07 20:44:36;;;;;;;22.48;2.65;;;;;;;7.47;100.00;100992.34;10206965;28;20415;-69
2021/11/07 20:54:44;;;;;;;18.45;2.60;;;;;;;7.50;100.00;101008.09;10202093;28;20484;-70
2021/11/07 21:30:00;;;;;;;16.73;2.60;;;;;;;7.59;100.00;101055.34;10201162;28;20510;-73
2021/11/07 21:35:06;;;;;;;13.32;2.00;;;;;;;7.62;100.00;101048.50;10207403;28;20581;-71
2021/11/07 21:40:14;;;;;;;17.58;2.60;;;;;;;7.65;100.00;101043.28;10216497;28;20557;-70
2021/11/07 21:45:12;;;;;;;16.35;3.83;;;;;;;7.69;100.00;101038.88;10217035;28;20103;-70
2021/11/07 21:50:09;;;;;;;22.45;3.72;;;;;;;7.72;100.00;101054.63;10222054;28;20730;-71
2021/11/07 21:55:07;;;;;;;18.40;3.03;;;;;;;7.75;100.00;101051.34;10217467;28;20461;-70
2021/11/07 22:00:07;;;;;;;16.73;3.22;;;;;;;7.73;100.00;101060.91;10219431;28;20080;-71
2021/11/07 22:05:05;;;;;;;15.57;2.95;;;;;;;7.76;100.00;101058.41;10216263;28;20092;-70
2021/11/07 22:10:03;;;;;;;26.45;3.28;;;;;;;7.82;100.00;101069.22;10208863;28;20123;-69
2021/11/07 22:15:05;;;;;;;18.20;3.03;;;;;;;7.91;100.00;101071.00;10220072;28;20050;-71
2021/11/07 22:20:05;;;;;;;20.77;3.88;;;;;;;7.96;100.00;101075.56;10215457;28;20085;-71
2021/11/07 22:25:06;;;;;;;22.83;3.80;;;;;;;7.98;100.00;101078.81;10217793;28;20477;-70
2021/11/07 22:30:11;;;;;;;23.77;4.00;;;;;;;8.04;100.00;101085.84;10226396;28;20050;-70
2021/11/07 22:35:13;;;;;;;20.33;3.47;;;;;;;8.11;100.00;101099.91;10217443;28;20048;-69
2021/11/07 22:40:10;;;;;;;28.67;3.60;;;;;;;8.14;100.00;101115.66;10222305;28;20137;-69
2021/11/07 22:45:08;;;;;;;20.58;3.45;;;;;;;8.16;100.00;101118.91;10223954;28;20102;-70
2021/11/07 22:50:17;;;;;;;26.60;4.75;;;;;;;8.19;100.00;101118.34;10219422;28;20041;-69
2021/11/07 23:01:00;;;;;;;29.38;5.00;;;;;;;8.20;100.00;101132.75;10230580;28;20050;-67
2021/11/07 23:06:12;;;;;;;20.67;4.43;;;;;;;8.20;100.00;101157.28;10222187;28;20048;-69
2021/11/07 23:11:10;;;;;;;26.35;4.22;;;;;;;8.19;100.00;101161.91;10237058;28;20060;-70
2021/11/07 23:16:08;;;;;;;26.67;5.07;;;;;;;8.21;100.00;101181.50;10224547;28;20565;-70
2021/11/07 23:21:05;;;;;;;22.45;4.00;;;;;;;8.19;100.00;101182.88;10224813;28;20073;-69
2021/11/07 23:26:02;;;;;;;22.33;4.80;;;;;;;8.20;100.00;101181.78;10226904;28;20072;-70
2021/11/07 23:30:59;;;;;;;32.63;5.80;;;;;;;8.23;100.00;101197.53;10221241;28;20459;-70
2021/11/07 23:36:04;;;;;;;30.83;4.88;;;;;;;8.25;100.00;101197.28;10216619;28;20120;-70
2021/11/07 23:41:01;;;;;;;27.55;5.40;;;;;;;8.22;100.00;101204.91;10229474;28;20136;-69
2021/11/07 23:45:57;;;;;;;37.00;5.97;;;;;;;8.21;100.00;101208.75;10217192;28;20519;-69
2021/11/07 23:51:22;;;;;;;36.75;6.00;;;;;;;8.21;100.00;101219.66;10220029;28;20498;-69
2021/11/07 23:56:14;;;;;;;25.77;5.30;;;;;;;8.21;100.00;101219.66;10224925;28;20414;-68
